sensor_id;sensor_type;location;lat;lon;timestamp;P1;durP1;ratioP1;P2;durP2;ratioP2
28447;SDS011;15675;52.870;-1.416;2023-03-19T00:00:48;14.38;;;2.47;;
28447;SDS011;15675;52.870;-1.416;2023-03-19T00:03:13;16.27;;;2.78;;
28447;SDS011;15675;52.870;-1.416;2023-03-19T00:05:39;11.98;;;1.88;;
28447;SDS011;15675;52.870;-1.416;2023-03-19T00:08:05;10.23;;;2.25;;
28447;SDS011;15675;52.870;-1.416;2023-03-19T00:10:31;12.70;;;2.20;;
28447;SDS011;15675;52.870;-1.416;2023-03-19T00:12:56;9.98;;;2.40;;
28447;SDS011;15675;52.870;-1.416;2023-03-19T00:15:22;10.10;;;1.88;;
28447;SDS011;15675;52.870;-1.416;2023-03-19T00:17:47;8.63;;;2.40;;
28447;SDS011;15675;52.870;-1.416;2023-03-19T00:20:13;11.27;;;2.03;;
28447;SDS011;15675;52.870;-1.416;2023-03-19T00:22:39;11.60;;;1.85;;
28447;SDS011;15675;52.870;-1.416;2023-03-19T00:25:05;14.63;;;2.42;;
28447;SDS011;15675;52.870;-1.416;2023-03-19T00:27:31;11.55;;;2.60;;
28447;SDS011;15675;52.870;-1.416;2023-03-19T00:29:56;8.27;;;2.30;;
28447;SDS011;15675;52.870;-1.416;2023-03-19T00:32:22;13.02;;;2.92;;
28447;SDS011;15675;52.870;-1.416;2023-03-19T00:34:47;11.25;;;2.17;;
28447;SDS011;15675;52.870;-1.416;2023-03-19T00:37:13;16.15;;;2.53;;
28447;SDS011;15675;52.870;-1.416;2023-03-19T00:39:40;10.40;;;2.50;;
28447;SDS011;15675;52.870;-1.416;2023-03-19T00:42:06;9.35;;;2.50;;
28447;SDS011;15675;52.870;-1.416;2023-03-19T00:44:31;6.95;;;1.95;;
28447;SDS011;15675;52.870;-1.416;2023-03-19T00:46:57;13.68;;;2.65;;
28447;SDS011;15675;52.870;-1.416;2023-03-19T00:49:22;8.77;;;2.63;;
28447;SDS011;15675;52.870;-1.416;2023-03-19T00:51:48;9.18;;;2.90;;
28447;SDS011;15675;52.870;-1.416;2023-03-19T00:54:13;11.73;;;3.40;;
28447;SDS011;15675;52.870;-1.416;2023-03-19T00:56:39;8.25;;;2.78;;
28447;SDS011;15675;52.870;-1.416;2023-03-19T00:59:05;15.00;;;3.75;;
28447;SDS011;15675;52.870;-1.416;2023-03-19T01:01:31;15.82;;;3.47;;
28447;SDS011;15675;52.870;-1.416;2023-03-19T01:03:56;17.27;;;4.30;;
28447;SDS011;15675;52.870;-1.416;2023-03-19T01:06:22;7.93;;;3.50;;
28447;SDS011;15675;52.870;-1.416;2023-03-19T01:08:47;13.68;;;4.05;;
28447;SDS011;15675;52.870;-1.416;2023-03-19T01:11:13;13.18;;;4.05;;
28447;SDS011;15675;52.870;-1.416;2023-03-19T01:13:41;18.75;;;3.80;;
28447;SDS011;15675;52.870;-1.416;2023-03-19T01:16:08;14.75;;;4.03;;
28447;SDS011;15675;52.870;-1.416;2023-03-19T01:18:34;16.50;;;4.10;;
28447;SDS011;15675;52.870;-1.416;2023-03-19T01:21:00;14.55;;;3.13;;
28447;SDS011;15675;52.870;-1.416;2023-03-19T01:23:26;14.00;;;2.90;;
28447;SDS011;15675;52.870;-1.416;2023-03-19T01:25:52;8.95;;;2.00;;
28447;SDS011;15675;52.870;-1.416;2023-03-19T01:28:17;16.05;;;2.72;;
28447;SDS011;15675;52.870;-1.416;2023-03-19T01:30:43;9.90;;;2.20;;
28447;SDS011;15675;52.870;-1.416;2023-03-19T01:33:09;17.08;;;2.08;;
28447;SDS011;15675;52.870;-1.416;2023-03-19T01:35:35;5.68;;;1.73;;
28447;SDS011;15675;52.870;-1.416;2023-03-19T01:38:01;8.63;;;2.00;;
28447;SDS011;15675;52.870;-1.416;2023-03-19T01:40:28;10.60;;;2.15;;
28447;SDS011;15675;52.870;-1.416;2023-03-19T01:42:54;7.10;;;1.50;;
28447;SDS011;15675;52.870;-1.416;2023-03-19T01:45:33;14.65;;;2.17;;
28447;SDS011;15675;52.870;-1.416;2023-03-19T01:48:01;11.32;;;1.73;;
28447;SDS011;15675;52.870;-1.416;2023-03-19T01:53:08;16.88;;;1.95;;
28447;SDS011;15675;52.870;-1.416;2023-03-19T01:55:36;14.05;;;2.05;;
28447;SDS011;15675;52.870;-1.416;2023-03-19T01:58:02;9.32;;;2.42;;
28447;SDS011;15675;52.870;-1.416;2023-03-19T02:00:30;11.60;;;2.22;;
28447;SDS011;15675;52.870;-1.416;2023-03-19T02:02:58;11.52;;;2.03;;
28447;SDS011;15675;52.870;-1.416;2023-03-19T02:05:26;15.68;;;2.58;;
28447;SDS011;15675;52.870;-1.416;2023-03-19T02:07:53;15.73;;;3.03;;
28447;SDS011;15675;52.870;-1.416;2023-03-19T02:10:22;14.57;;;2.50;;
28447;SDS011;15675;52.870;-1.416;2023-03-19T02:12:49;17.45;;;2.00;;
28447;SDS011;15675;52.870;-1.416;2023-03-19T02:15:14;14.63;;;2.45;;
28447;SDS011;15675;52.870;-1.416;2023-03-19T02:17:40;10.68;;;1.85;;
28447;SDS011;15675;52.870;-1.416;2023-03-19T02:20:10;15.35;;;2.05;;
28447;SDS011;15675;52.870;-1.416;2023-03-19T02:25:59;15.50;;;1.70;;
28447;SDS011;15675;52.870;-1.416;2023-03-19T02:30:51;20.00;;;2.35;;
28447;SDS011;15675;52.870;-1.416;2023-03-19T02:33:17;15.63;;;1.83;;
28447;SDS011;15675;52.870;-1.416;2023-03-19T02:35:44;24.35;;;3.85;;
28447;SDS011;15675;52.870;-1.416;2023-03-19T02:38:13;13.93;;;2.25;;
28447;SDS011;15675;52.870;-1.416;2023-03-19T02:40:42;12.43;;;2.08;;
28447;SDS011;15675;52.870;-1.416;2023-03-19T02:43:12;12.18;;;2.30;;
28447;SDS011;15675;52.870;-1.416;2023-03-19T02:45:37;8.52;;;1.88;;
28447;SDS011;15675;52.870;-1.416;2023-03-19T02:48:03;14.55;;;2.47;;
28447;SDS011;15675;52.870;-1.416;2023-03-19T02:50:29;10.57;;;2.05;;
28447;SDS011;15675;52.870;-1.416;2023-03-19T02:52:55;17.17;;;2.17;;
28447;SDS011;15675;52.870;-1.416;2023-03-19T02:55:20;10.13;;;2.25;;
28447;SDS011;15675;52.870;-1.416;2023-03-19T02:57:46;9.35;;;1.63;;
28447;SDS011;15675;52.870;-1.416;2023-03-19T03:00:12;13.68;;;2.38;;
28447;SDS011;15675;52.870;-1.416;2023-03-19T03:02:41;14.50;;;2.33;;
28447;SDS011;15675;52.870;-1.416;2023-03-19T03:05:07;12.63;;;2.42;;
28447;SDS011;15675;52.870;-1.416;2023-03-19T03:07:33;9.45;;;1.75;;
28447;SDS011;15675;52.870;-1.416;2023-03-19T03:09:59;9.02;;;1.90;;
28447;SDS011;15675;52.870;-1.416;2023-03-19T03:12:24;16.75;;;2.85;;
28447;SDS011;15675;52.870;-1.416;2023-03-19T03:14:50;17.83;;;2.28;;
28447;SDS011;15675;52.870;-1.416;2023-03-19T03:17:15;13.70;;;1.95;;
28447;SDS011;15675;52.870;-1.416;2023-03-19T03:19:41;21.60;;;2.67;;
28447;SDS011;15675;52.870;-1.416;2023-03-19T03:22:09;17.33;;;2.22;;
28447;SDS011;15675;52.870;-1.416;2023-03-19T03:24:35;17.42;;;2.38;;
28447;SDS011;15675;52.870;-1.416;2023-03-19T03:27:00;13.00;;;2.70;;
28447;SDS011;15675;52.870;-1.416;2023-03-19T03:29:26;18.58;;;2.42;;
28447;SDS011;15675;52.870;-1.416;2023-03-19T03:31:52;17.85;;;2.30;;
28447;SDS011;15675;52.870;-1.416;2023-03-19T03:34:18;17.88;;;2.72;;
28447;SDS011;15675;52.870;-1.416;2023-03-19T03:36:43;15.27;;;2.20;;
28447;SDS011;15675;52.870;-1.416;2023-03-19T03:39:12;10.82;;;2.45;;
28447;SDS011;15675;52.870;-1.416;2023-03-19T03:41:38;22.27;;;3.17;;
28447;SDS011;15675;52.870;-1.416;2023-03-19T03:44:04;15.15;;;2.17;;
28447;SDS011;15675;52.870;-1.416;2023-03-19T03:46:29;13.70;;;2.63;;
28447;SDS011;15675;52.870;-1.416;2023-03-19T03:48:55;18.55;;;2.45;;
28447;SDS011;15675;52.870;-1.416;2023-03-19T03:51:21;14.20;;;2.60;;
28447;SDS011;15675;52.870;-1.416;2023-03-19T03:53:46;13.02;;;2.20;;
28447;SDS011;15675;52.870;-1.416;2023-03-19T03:56:12;23.52;;;2.90;;
28447;SDS011;15675;52.870;-1.416;2023-03-19T03:58:38;13.68;;;2.92;;
28447;SDS011;15675;52.870;-1.416;2023-03-19T04:01:03;19.65;;;3.15;;
28447;SDS011;15675;52.870;-1.416;2023-03-19T04:03:31;9.57;;;2.22;;
28447;SDS011;15675;52.870;-1.416;2023-03-19T04:05:58;8.65;;;2.55;;
28447;SDS011;15675;52.870;-1.416;2023-03-19T04:08:23;21.48;;;3.53;;
28447;SDS011;15675;52.870;-1.416;2023-03-19T04:10:49;11.23;;;2.38;;
28447;SDS011;15675;52.870;-1.416;2023-03-19T04:13:15;14.25;;;3.08;;
28447;SDS011;15675;52.870;-1.416;2023-03-19T04:15:41;19.48;;;3.70;;
28447;SDS011;15675;52.870;-1.416;2023-03-19T04:18:07;18.60;;;2.90;;
28447;SDS011;15675;52.870;-1.416;2023-03-19T04:20:33;16.02;;;3.15;;
28447;SDS011;15675;52.870;-1.416;2023-03-19T04:23:01;16.73;;;3.38;;
28447;SDS011;15675;52.870;-1.416;2023-03-19T04:25:27;11.38;;;2.22;;
28447;SDS011;15675;52.870;-1.416;2023-03-19T04:27:56;10.45;;;2.63;;
28447;SDS011;15675;52.870;-1.416;2023-03-19T04:30:22;21.45;;;3.63;;
28447;SDS011;15675;52.870;-1.416;2023-03-19T04:32:49;21.55;;;3.03;;
28447;SDS011;15675;52.870;-1.416;2023-03-19T04:35:14;15.95;;;3.08;;
28447;SDS011;15675;52.870;-1.416;2023-03-19T04:37:40;18.83;;;2.88;;
28447;SDS011;15675;52.870;-1.416;2023-03-19T04:40:12;20.63;;;3.22;;
28447;SDS011;15675;52.870;-1.416;2023-03-19T04:42:39;16.85;;;2.78;;
28447;SDS011;15675;52.870;-1.416;2023-03-19T04:45:05;14.68;;;3.15;;
28447;SDS011;15675;52.870;-1.416;2023-03-19T04:47:31;24.17;;;3.78;;
28447;SDS011;15675;52.870;-1.416;2023-03-19T04:49:57;26.27;;;2.53;;
28447;SDS011;15675;52.870;-1.416;2023-03-19T04:52:23;14.07;;;3.30;;
28447;SDS011;15675;52.870;-1.416;2023-03-19T04:54:48;20.67;;;3.95;;
28447;SDS011;15675;52.870;-1.416;2023-03-19T04:57:14;13.13;;;3.13;;
28447;SDS011;15675;52.870;-1.416;2023-03-19T04:59:39;16.92;;;3.22;;
28447;SDS011;15675;52.870;-1.416;2023-03-19T05:02:06;18.90;;;3.25;;
28447;SDS011;15675;52.870;-1.416;2023-03-19T05:04:32;20.02;;;3.47;;
28447;SDS011;15675;52.870;-1.416;2023-03-19T05:06:57;27.50;;;3.28;;
28447;SDS011;15675;52.870;-1.416;2023-03-19T05:09:23;25.15;;;3.00;;
28447;SDS011;15675;52.870;-1.416;2023-03-19T05:11:49;10.75;;;3.15;;
28447;SDS011;15675;52.870;-1.416;2023-03-19T05:14:15;20.52;;;3.25;;
28447;SDS011;15675;52.870;-1.416;2023-03-19T05:16:41;25.60;;;4.03;;
28447;SDS011;15675;52.870;-1.416;2023-03-19T05:19:07;20.02;;;3.20;;
28447;SDS011;15675;52.870;-1.416;2023-03-19T05:21:32;17.20;;;3.13;;
28447;SDS011;15675;52.870;-1.416;2023-03-19T05:23:58;21.50;;;3.08;;
28447;SDS011;15675;52.870;-1.416;2023-03-19T05:26:24;12.00;;;2.67;;
28447;SDS011;15675;52.870;-1.416;2023-03-19T05:28:49;18.10;;;2.75;;
28447;SDS011;15675;52.870;-1.416;2023-03-19T05:31:15;24.52;;;2.72;;
28447;SDS011;15675;52.870;-1.416;2023-03-19T05:33:41;18.08;;;3.05;;
28447;SDS011;15675;52.870;-1.416;2023-03-19T05:36:06;15.10;;;2.55;;
28447;SDS011;15675;52.870;-1.416;2023-03-19T05:38:32;19.80;;;3.38;;
28447;SDS011;15675;52.870;-1.416;2023-03-19T05:41:02;16.42;;;2.55;;
28447;SDS011;15675;52.870;-1.416;2023-03-19T05:43:28;24.25;;;3.72;;
28447;SDS011;15675;52.870;-1.416;2023-03-19T05:45:54;24.58;;;4.03;;
28447;SDS011;15675;52.870;-1.416;2023-03-19T05:48:22;21.92;;;2.95;;
28447;SDS011;15675;52.870;-1.416;2023-03-19T05:50:47;21.85;;;4.07;;
28447;SDS011;15675;52.870;-1.416;2023-03-19T05:53:13;25.88;;;3.65;;
28447;SDS011;15675;52.870;-1.416;2023-03-19T05:55:39;27.40;;;4.10;;
28447;SDS011;15675;52.870;-1.416;2023-03-19T05:58:05;20.00;;;3.17;;
28447;SDS011;15675;52.870;-1.416;2023-03-19T06:00:32;21.90;;;3.70;;
28447;SDS011;15675;52.870;-1.416;2023-03-19T06:02:58;18.20;;;3.63;;
28447;SDS011;15675;52.870;-1.416;2023-03-19T06:05:23;16.63;;;3.30;;
28447;SDS011;15675;52.870;-1.416;2023-03-19T06:07:49;24.85;;;3.42;;
28447;SDS011;15675;52.870;-1.416;2023-03-19T06:10:14;22.63;;;5.22;;
28447;SDS011;15675;52.870;-1.416;2023-03-19T06:12:41;20.63;;;4.47;;
28447;SDS011;15675;52.870;-1.416;2023-03-19T06:15:07;14.43;;;4.03;;
28447;SDS011;15675;52.870;-1.416;2023-03-19T06:17:33;18.15;;;3.75;;
28447;SDS011;15675;52.870;-1.416;2023-03-19T06:20:00;22.52;;;3.78;;
28447;SDS011;15675;52.870;-1.416;2023-03-19T06:22:25;21.55;;;4.57;;
28447;SDS011;15675;52.870;-1.416;2023-03-19T06:24:51;20.67;;;4.38;;
28447;SDS011;15675;52.870;-1.416;2023-03-19T06:27:17;17.27;;;4.32;;
28447;SDS011;15675;52.870;-1.416;2023-03-19T06:29:42;21.30;;;4.82;;
28447;SDS011;15675;52.870;-1.416;2023-03-19T06:32:10;17.08;;;3.67;;
28447;SDS011;15675;52.870;-1.416;2023-03-19T06:34:36;13.38;;;3.75;;
28447;SDS011;15675;52.870;-1.416;2023-03-19T06:37:02;17.58;;;4.05;;
28447;SDS011;15675;52.870;-1.416;2023-03-19T06:39:28;17.10;;;4.10;;
28447;SDS011;15675;52.870;-1.416;2023-03-19T06:41:53;15.18;;;4.55;;
28447;SDS011;15675;52.870;-1.416;2023-03-19T06:44:21;18.88;;;5.07;;
28447;SDS011;15675;52.870;-1.416;2023-03-19T06:46:46;20.23;;;4.82;;
28447;SDS011;15675;52.870;-1.416;2023-03-19T06:49:12;15.93;;;4.30;;
28447;SDS011;15675;52.870;-1.416;2023-03-19T06:51:37;24.33;;;5.38;;
28447;SDS011;15675;52.870;-1.416;2023-03-19T06:54:03;13.02;;;4.63;;
28447;SDS011;15675;52.870;-1.416;2023-03-19T06:56:28;27.83;;;5.50;;
28447;SDS011;15675;52.870;-1.416;2023-03-19T06:58:54;22.33;;;4.95;;
28447;SDS011;15675;52.870;-1.416;2023-03-19T07:01:20;13.40;;;4.78;;
28447;SDS011;15675;52.870;-1.416;2023-03-19T07:03:47;21.92;;;5.18;;
28447;SDS011;15675;52.870;-1.416;2023-03-19T07:06:12;13.85;;;5.07;;
28447;SDS011;15675;52.870;-1.416;2023-03-19T07:08:38;16.15;;;4.30;;
28447;SDS011;15675;52.870;-1.416;2023-03-19T07:11:10;17.90;;;4.28;;
28447;SDS011;15675;52.870;-1.416;2023-03-19T07:13:36;15.32;;;4.93;;
28447;SDS011;15675;52.870;-1.416;2023-03-19T07:16:02;17.92;;;5.35;;
28447;SDS011;15675;52.870;-1.416;2023-03-19T07:18:28;18.48;;;5.28;;
28447;SDS011;15675;52.870;-1.416;2023-03-19T07:20:53;14.52;;;5.70;;
28447;SDS011;15675;52.870;-1.416;2023-03-19T07:23:19;16.05;;;4.80;;
28447;SDS011;15675;52.870;-1.416;2023-03-19T07:25:44;21.27;;;6.38;;
28447;SDS011;15675;52.870;-1.416;2023-03-19T07:28:11;18.70;;;6.18;;
28447;SDS011;15675;52.870;-1.416;2023-03-19T07:30:37;11.63;;;5.05;;
28447;SDS011;15675;52.870;-1.416;2023-03-19T07:33:04;16.45;;;5.35;;
28447;SDS011;15675;52.870;-1.416;2023-03-19T07:35:31;21.95;;;6.22;;
28447;SDS011;15675;52.870;-1.416;2023-03-19T07:37:57;25.67;;;6.20;;
28447;SDS011;15675;52.870;-1.416;2023-03-19T07:40:23;19.85;;;6.05;;
28447;SDS011;15675;52.870;-1.416;2023-03-19T07:42:49;21.58;;;6.07;;
28447;SDS011;15675;52.870;-1.416;2023-03-19T07:45:15;31.77;;;7.47;;
28447;SDS011;15675;52.870;-1.416;2023-03-19T07:47:41;33.10;;;6.85;;
28447;SDS011;15675;52.870;-1.416;2023-03-19T07:50:07;25.17;;;6.93;;
28447;SDS011;15675;52.870;-1.416;2023-03-19T07:52:33;28.00;;;6.97;;
28447;SDS011;15675;52.870;-1.416;2023-03-19T07:54:59;19.13;;;6.25;;
28447;SDS011;15675;52.870;-1.416;2023-03-19T07:57:24;23.88;;;6.60;;
28447;SDS011;15675;52.870;-1.416;2023-03-19T07:59:50;15.90;;;6.20;;
28447;SDS011;15675;52.870;-1.416;2023-03-19T08:02:16;18.20;;;6.38;;
28447;SDS011;15675;52.870;-1.416;2023-03-19T08:04:42;16.98;;;6.05;;
28447;SDS011;15675;52.870;-1.416;2023-03-19T08:07:08;22.05;;;6.50;;
28447;SDS011;15675;52.870;-1.416;2023-03-19T08:09:38;16.73;;;5.55;;
28447;SDS011;15675;52.870;-1.416;2023-03-19T08:12:05;21.63;;;6.70;;
28447;SDS011;15675;52.870;-1.416;2023-03-19T08:14:31;24.98;;;7.88;;
28447;SDS011;15675;52.870;-1.416;2023-03-19T08:16:58;26.85;;;6.65;;
28447;SDS011;15675;52.870;-1.416;2023-03-19T08:19:23;16.50;;;6.43;;
28447;SDS011;15675;52.870;-1.416;2023-03-19T08:21:49;16.27;;;6.25;;
28447;SDS011;15675;52.870;-1.416;2023-03-19T08:24:15;21.80;;;6.35;;
28447;SDS011;15675;52.870;-1.416;2023-03-19T08:26:41;20.40;;;6.05;;
28447;SDS011;15675;52.870;-1.416;2023-03-19T08:29:07;22.67;;;6.07;;
28447;SDS011;15675;52.870;-1.416;2023-03-19T08:31:32;20.55;;;6.13;;
28447;SDS011;15675;52.870;-1.416;2023-03-19T08:33:58;17.15;;;6.07;;
28447;SDS011;15675;52.870;-1.416;2023-03-19T08:36:30;19.52;;;5.30;;
28447;SDS011;15675;52.870;-1.416;2023-03-19T08:38:56;23.02;;;5.50;;
28447;SDS011;15675;52.870;-1.416;2023-03-19T08:41:23;25.23;;;5.85;;
28447;SDS011;15675;52.870;-1.416;2023-03-19T08:43:49;21.85;;;5.40;;
28447;SDS011;15675;52.870;-1.416;2023-03-19T08:46:15;15.80;;;5.20;;
28447;SDS011;15675;52.870;-1.416;2023-03-19T08:48:41;19.00;;;5.75;;
28447;SDS011;15675;52.870;-1.416;2023-03-19T08:51:06;13.98;;;5.10;;
28447;SDS011;15675;52.870;-1.416;2023-03-19T08:53:33;19.40;;;5.22;;
28447;SDS011;15675;52.870;-1.416;2023-03-19T08:56:00;15.80;;;5.30;;
28447;SDS011;15675;52.870;-1.416;2023-03-19T08:58:28;13.52;;;4.35;;
28447;SDS011;15675;52.870;-1.416;2023-03-19T09:01:04;15.00;;;5.03;;
28447;SDS011;15675;52.870;-1.416;2023-03-19T09:03:33;15.48;;;4.13;;
28447;SDS011;15675;52.870;-1.416;2023-03-19T09:05:59;12.35;;;4.05;;
28447;SDS011;15675;52.870;-1.416;2023-03-19T09:08:26;14.75;;;3.70;;
28447;SDS011;15675;52.870;-1.416;2023-03-19T09:10:53;13.05;;;3.17;;
28447;SDS011;15675;52.870;-1.416;2023-03-19T09:13:22;9.13;;;3.30;;
28447;SDS011;15675;52.870;-1.416;2023-03-19T09:15:48;11.60;;;2.80;;
28447;SDS011;15675;52.870;-1.416;2023-03-19T09:18:14;8.38;;;1.40;;
28447;SDS011;15675;52.870;-1.416;2023-03-19T09:20:41;8.52;;;1.45;;
28447;SDS011;15675;52.870;-1.416;2023-03-19T09:23:07;4.88;;;1.42;;
28447;SDS011;15675;52.870;-1.416;2023-03-19T09:25:32;11.13;;;1.52;;
28447;SDS011;15675;52.870;-1.416;2023-03-19T09:27:58;4.88;;;1.77;;
28447;SDS011;15675;52.870;-1.416;2023-03-19T09:30:24;6.13;;;1.65;;
28447;SDS011;15675;52.870;-1.416;2023-03-19T09:32:49;11.63;;;1.98;;
28447;SDS011;15675;52.870;-1.416;2023-03-19T09:35:15;12.77;;;2.13;;
28447;SDS011;15675;52.870;-1.416;2023-03-19T09:37:40;6.90;;;1.52;;
28447;SDS011;15675;52.870;-1.416;2023-03-19T09:40:06;5.85;;;1.73;;
28447;SDS011;15675;52.870;-1.416;2023-03-19T09:45:31;9.98;;;1.73;;
28447;SDS011;15675;52.870;-1.416;2023-03-19T09:47:57;9.68;;;1.73;;
28447;SDS011;15675;52.870;-1.416;2023-03-19T09:50:28;6.20;;;1.58;;
28447;SDS011;15675;52.870;-1.416;2023-03-19T09:53:33;11.93;;;1.65;;
28447;SDS011;15675;52.870;-1.416;2023-03-19T09:55:51;7.07;;;1.50;;
28447;SDS011;15675;52.870;-1.416;2023-03-19T10:00:50;8.00;;;1.55;;
28447;SDS011;15675;52.870;-1.416;2023-03-19T10:06:13;12.55;;;1.40;;
28447;SDS011;15675;52.870;-1.416;2023-03-19T10:15:19;3.78;;;1.48;;
28447;SDS011;15675;52.870;-1.416;2023-03-19T10:17:53;5.63;;;1.38;;
28447;SDS011;15675;52.870;-1.416;2023-03-19T10:20:37;2.60;;;1.05;;
28447;SDS011;15675;52.870;-1.416;2023-03-19T10:25:42;6.50;;;1.30;;
28447;SDS011;15675;52.870;-1.416;2023-03-19T10:28:15;10.35;;;1.25;;
28447;SDS011;15675;52.870;-1.416;2023-03-19T10:30:43;8.02;;;1.70;;
28447;SDS011;15675;52.870;-1.416;2023-03-19T10:33:24;4.35;;;1.25;;
28447;SDS011;15675;52.870;-1.416;2023-03-19T10:36:02;6.65;;;1.42;;
28447;SDS011;15675;52.870;-1.416;2023-03-19T10:38:32;9.05;;;1.70;;
28447;SDS011;15675;52.870;-1.416;2023-03-19T10:41:10;2.33;;;1.20;;
28447;SDS011;15675;52.870;-1.416;2023-03-19T10:43:53;4.75;;;1.05;;
28447;SDS011;15675;52.870;-1.416;2023-03-19T10:46:22;6.47;;;1.27;;
28447;SDS011;15675;52.870;-1.416;2023-03-19T10:48:48;5.80;;;1.30;;
28447;SDS011;15675;52.870;-1.416;2023-03-19T10:51:20;4.50;;;1.30;;
28447;SDS011;15675;52.870;-1.416;2023-03-19T10:53:49;9.25;;;1.75;;
28447;SDS011;15675;52.870;-1.416;2023-03-19T10:59:00;9.60;;;2.08;;
28447;SDS011;15675;52.870;-1.416;2023-03-19T11:01:38;6.40;;;1.05;;
28447;SDS011;15675;52.870;-1.416;2023-03-19T11:04:18;12.38;;;1.58;;
28447;SDS011;15675;52.870;-1.416;2023-03-19T11:06:52;3.83;;;1.05;;
28447;SDS011;15675;52.870;-1.416;2023-03-19T11:09:42;12.07;;;1.83;;
28447;SDS011;15675;52.870;-1.416;2023-03-19T11:14:45;8.10;;;1.50;;
28447;SDS011;15675;52.870;-1.416;2023-03-19T11:19:41;9.73;;;1.60;;
28447;SDS011;15675;52.870;-1.416;2023-03-19T11:22:16;7.00;;;1.35;;
28447;SDS011;15675;52.870;-1.416;2023-03-19T11:24:53;6.22;;;1.20;;
28447;SDS011;15675;52.870;-1.416;2023-03-19T11:27:28;6.00;;;1.45;;
28447;SDS011;15675;52.870;-1.416;2023-03-19T11:29:55;6.38;;;1.58;;
28447;SDS011;15675;52.870;-1.416;2023-03-19T11:32:28;7.00;;;1.30;;
28447;SDS011;15675;52.870;-1.416;2023-03-19T11:35:24;5.75;;;1.27;;
28447;SDS011;15675;52.870;-1.416;2023-03-19T11:38:01;5.78;;;1.33;;
28447;SDS011;15675;52.870;-1.416;2023-03-19T11:45:53;3.15;;;1.08;;
28447;SDS011;15675;52.870;-1.416;2023-03-19T11:48:33;7.57;;;1.60;;
28447;SDS011;15675;52.870;-1.416;2023-03-19T11:56:58;8.10;;;1.88;;
28447;SDS011;15675;52.870;-1.416;2023-03-19T12:15:40;5.90;;;1.00;;
28447;SDS011;15675;52.870;-1.416;2023-03-19T12:21:10;2.95;;;0.90;;
28447;SDS011;15675;52.870;-1.416;2023-03-19T12:32:32;2.65;;;0.90;;
28447;SDS011;15675;52.870;-1.416;2023-03-19T12:34:49;3.28;;;1.00;;
28447;SDS011;15675;52.870;-1.416;2023-03-19T12:37:24;6.35;;;0.82;;
28447;SDS011;15675;52.870;-1.416;2023-03-19T12:43:05;2.00;;;0.90;;
28447;SDS011;15675;52.870;-1.416;2023-03-19T12:45:40;7.72;;;1.63;;
28447;SDS011;15675;52.870;-1.416;2023-03-19T12:50:38;3.83;;;0.90;;
28447;SDS011;15675;52.870;-1.416;2023-03-19T12:53:10;3.47;;;1.30;;
28447;SDS011;15675;52.870;-1.416;2023-03-19T12:55:48;4.85;;;1.17;;
28447;SDS011;15675;52.870;-1.416;2023-03-19T12:58:38;4.63;;;1.15;;
28447;SDS011;15675;52.870;-1.416;2023-03-19T13:01:15;11.43;;;2.47;;
28447;SDS011;15675;52.870;-1.416;2023-03-19T13:03:52;10.73;;;1.25;;
28447;SDS011;15675;52.870;-1.416;2023-03-19T13:07:12;3.28;;;1.25;;
28447;SDS011;15675;52.870;-1.416;2023-03-19T13:09:33;5.25;;;0.93;;
28447;SDS011;15675;52.870;-1.416;2023-03-19T13:12:22;4.25;;;1.27;;
28447;SDS011;15675;52.870;-1.416;2023-03-19T13:14:58;2.40;;;1.15;;
28447;SDS011;15675;52.870;-1.416;2023-03-19T13:23:21;5.35;;;1.27;;
28447;SDS011;15675;52.870;-1.416;2023-03-19T13:25:51;8.38;;;1.52;;
28447;SDS011;15675;52.870;-1.416;2023-03-19T13:28:29;8.70;;;2.00;;
28447;SDS011;15675;52.870;-1.416;2023-03-19T13:31:19;7.93;;;1.88;;
28447;SDS011;15675;52.870;-1.416;2023-03-19T13:33:50;14.35;;;2.10;;
28447;SDS011;15675;52.870;-1.416;2023-03-19T13:36:25;8.48;;;1.92;;
28447;SDS011;15675;52.870;-1.416;2023-03-19T13:38:55;6.40;;;1.50;;
28447;SDS011;15675;52.870;-1.416;2023-03-19T13:43:56;8.20;;;1.60;;
28447;SDS011;15675;52.870;-1.416;2023-03-19T13:46:30;5.35;;;1.35;;
28447;SDS011;15675;52.870;-1.416;2023-03-19T13:49:06;7.57;;;1.42;;
28447;SDS011;15675;52.870;-1.416;2023-03-19T13:51:46;6.53;;;1.50;;
28447;SDS011;15675;52.870;-1.416;2023-03-19T13:54:17;10.15;;;1.50;;
28447;SDS011;15675;52.870;-1.416;2023-03-19T14:01:52;4.72;;;1.25;;
28447;SDS011;15675;52.870;-1.416;2023-03-19T14:06:47;5.63;;;1.25;;
28447;SDS011;15675;52.870;-1.416;2023-03-19T14:12:10;7.07;;;1.33;;
28447;SDS011;15675;52.870;-1.416;2023-03-19T14:14:44;3.97;;;1.15;;
28447;SDS011;15675;52.870;-1.416;2023-03-19T14:17:15;7.03;;;1.58;;
28447;SDS011;15675;52.870;-1.416;2023-03-19T14:19:55;10.07;;;1.27;;
28447;SDS011;15675;52.870;-1.416;2023-03-19T14:27:45;7.30;;;1.58;;
28447;SDS011;15675;52.870;-1.416;2023-03-19T14:30:27;5.82;;;1.25;;
28447;SDS011;15675;52.870;-1.416;2023-03-19T14:32:54;7.63;;;1.35;;
28447;SDS011;15675;52.870;-1.416;2023-03-19T14:35:23;7.55;;;1.33;;
28447;SDS011;15675;52.870;-1.416;2023-03-19T14:37:50;9.93;;;2.05;;
28447;SDS011;15675;52.870;-1.416;2023-03-19T14:40:31;9.55;;;1.75;;
28447;SDS011;15675;52.870;-1.416;2023-03-19T14:45:59;8.57;;;2.30;;
28447;SDS011;15675;52.870;-1.416;2023-03-19T14:51:33;5.55;;;2.55;;
28447;SDS011;15675;52.870;-1.416;2023-03-19T14:55:14;9.75;;;2.80;;
28447;SDS011;15675;52.870;-1.416;2023-03-19T14:57:16;8.05;;;2.80;;
28447;SDS011;15675;52.870;-1.416;2023-03-19T14:59:43;14.70;;;2.53;;
28447;SDS011;15675;52.870;-1.416;2023-03-19T15:05:15;7.55;;;2.83;;
28447;SDS011;15675;52.870;-1.416;2023-03-19T15:07:56;8.68;;;3.00;;
28447;SDS011;15675;52.870;-1.416;2023-03-19T15:18:09;9.35;;;3.42;;
28447;SDS011;15675;52.870;-1.416;2023-03-19T15:20:44;9.95;;;3.78;;
28447;SDS011;15675;52.870;-1.416;2023-03-19T15:23:16;10.73;;;4.10;;
28447;SDS011;15675;52.870;-1.416;2023-03-19T15:25:43;10.73;;;3.17;;
28447;SDS011;15675;52.870;-1.416;2023-03-19T15:28:15;12.23;;;3.90;;
28447;SDS011;15675;52.870;-1.416;2023-03-19T15:30:44;12.38;;;4.53;;
28447;SDS011;15675;52.870;-1.416;2023-03-19T15:33:19;8.77;;;3.22;;
28447;SDS011;15675;52.870;-1.416;2023-03-19T15:35:54;12.10;;;3.60;;
28447;SDS011;15675;52.870;-1.416;2023-03-19T15:38:25;11.38;;;2.70;;
28447;SDS011;15675;52.870;-1.416;2023-03-19T15:43:23;9.85;;;2.75;;
28447;SDS011;15675;52.870;-1.416;2023-03-19T15:45:51;10.38;;;2.67;;
28447;SDS011;15675;52.870;-1.416;2023-03-19T15:48:26;11.15;;;3.90;;
28447;SDS011;15675;52.870;-1.416;2023-03-19T15:51:01;9.93;;;2.88;;
28447;SDS011;15675;52.870;-1.416;2023-03-19T15:53:30;5.75;;;1.85;;
28447;SDS011;15675;52.870;-1.416;2023-03-19T15:55:59;12.45;;;2.58;;
28447;SDS011;15675;52.870;-1.416;2023-03-19T15:58:27;8.73;;;2.40;;
28447;SDS011;15675;52.870;-1.416;2023-03-19T16:00:56;7.93;;;2.10;;
28447;SDS011;15675;52.870;-1.416;2023-03-19T16:03:25;6.20;;;2.30;;
28447;SDS011;15675;52.870;-1.416;2023-03-19T16:05:58;8.32;;;2.20;;
28447;SDS011;15675;52.870;-1.416;2023-03-19T16:08:32;8.82;;;2.25;;
28447;SDS011;15675;52.870;-1.416;2023-03-19T16:11:13;9.05;;;1.98;;
28447;SDS011;15675;52.870;-1.416;2023-03-19T16:13:56;8.80;;;1.92;;
28447;SDS011;15675;52.870;-1.416;2023-03-19T16:16:23;9.25;;;2.05;;
28447;SDS011;15675;52.870;-1.416;2023-03-19T16:24:34;11.32;;;1.85;;
28447;SDS011;15675;52.870;-1.416;2023-03-19T16:26:52;10.00;;;2.13;;
28447;SDS011;15675;52.870;-1.416;2023-03-19T16:29:19;13.23;;;2.00;;
28447;SDS011;15675;52.870;-1.416;2023-03-19T16:31:49;8.60;;;1.70;;
28447;SDS011;15675;52.870;-1.416;2023-03-19T16:34:25;8.18;;;1.70;;
28447;SDS011;15675;52.870;-1.416;2023-03-19T16:36:55;8.55;;;2.10;;
28447;SDS011;15675;52.870;-1.416;2023-03-19T16:39:34;9.75;;;2.03;;
28447;SDS011;15675;52.870;-1.416;2023-03-19T16:44:38;7.82;;;2.33;;